sensor_id;sensor_type;location;lat;lon;timestamp;P1;durP1;ratioP1;P2;durP2;ratioP2
59474;SDS011;45288;51.136;16.928;2023-11-21T00:01:31;914.13;;;837.45;;
59474;SDS011;45288;51.136;16.928;2023-11-21T00:03:58;907.03;;;830.22;;
59474;SDS011;45288;51.136;16.928;2023-11-21T00:06:26;911.28;;;834.35;;
59474;SDS011;45288;51.136;16.928;2023-11-21T00:08:52;905.13;;;827.75;;
59474;SDS011;45288;51.136;16.928;2023-11-21T00:11:17;888.27;;;812.57;;
59474;SDS011;45288;51.136;16.928;2023-11-21T00:13:43;903.53;;;828.60;;
59474;SDS011;45288;51.136;16.928;2023-11-21T00:16:09;901.80;;;823.88;;
59474;SDS011;45288;51.136;16.928;2023-11-21T00:18:35;890.07;;;813.87;;
59474;SDS011;45288;51.136;16.928;2023-11-21T00:21:01;902.53;;;825.70;;
59474;SDS011;45288;51.136;16.928;2023-11-21T00:23:26;908.00;;;831.70;;
59474;SDS011;45288;51.136;16.928;2023-11-21T00:25:52;899.75;;;823.10;;
59474;SDS011;45288;51.136;16.928;2023-11-21T00:28:18;896.83;;;821.93;;
59474;SDS011;45288;51.136;16.928;2023-11-21T00:30:43;907.22;;;829.95;;
59474;SDS011;45288;51.136;16.928;2023-11-21T00:33:10;894.78;;;819.95;;
59474;SDS011;45288;51.136;16.928;2023-11-21T00:35:36;896.88;;;821.03;;
59474;SDS011;45288;51.136;16.928;2023-11-21T00:38:02;902.67;;;825.83;;
59474;SDS011;45288;51.136;16.928;2023-11-21T00:40:28;895.10;;;818.50;;
59474;SDS011;45288;51.136;16.928;2023-11-21T00:42:54;895.47;;;819.33;;
59474;SDS011;45288;51.136;16.928;2023-11-21T00:45:21;893.15;;;816.55;;
59474;SDS011;45288;51.136;16.928;2023-11-21T00:47:47;892.55;;;815.47;;
59474;SDS011;45288;51.136;16.928;2023-11-21T00:50:13;896.58;;;819.45;;
59474;SDS011;45288;51.136;16.928;2023-11-21T00:52:39;903.50;;;825.75;;
59474;SDS011;45288;51.136;16.928;2023-11-21T00:55:05;894.30;;;818.47;;
59474;SDS011;45288;51.136;16.928;2023-11-21T00:57:33;888.70;;;813.72;;
59474;SDS011;45288;51.136;16.928;2023-11-21T01:00:00;896.70;;;821.05;;
59474;SDS011;45288;51.136;16.928;2023-11-21T01:02:26;901.55;;;826.38;;
59474;SDS011;45288;51.136;16.928;2023-11-21T01:04:52;897.53;;;821.83;;
59474;SDS011;45288;51.136;16.928;2023-11-21T01:07:18;896.50;;;821.42;;
59474;SDS011;45288;51.136;16.928;2023-11-21T01:09:45;905.53;;;830.10;;
59474;SDS011;45288;51.136;16.928;2023-11-21T01:12:11;899.40;;;823.97;;
59474;SDS011;45288;51.136;16.928;2023-11-21T01:14:37;908.15;;;830.55;;
59474;SDS011;45288;51.136;16.928;2023-11-21T01:17:03;900.73;;;824.97;;
59474;SDS011;45288;51.136;16.928;2023-11-21T01:19:31;903.58;;;828.30;;
59474;SDS011;45288;51.136;16.928;2023-11-21T01:21:56;904.10;;;826.70;;
59474;SDS011;45288;51.136;16.928;2023-11-21T01:24:23;889.80;;;814.40;;
59474;SDS011;45288;51.136;16.928;2023-11-21T01:26:49;891.67;;;816.03;;
59474;SDS011;45288;51.136;16.928;2023-11-21T01:29:15;888.60;;;811.93;;
59474;SDS011;45288;51.136;16.928;2023-11-21T01:31:41;893.10;;;817.80;;
59474;SDS011;45288;51.136;16.928;2023-11-21T01:34:06;895.50;;;819.23;;
59474;SDS011;45288;51.136;16.928;2023-11-21T01:36:32;889.13;;;815.00;;
59474;SDS011;45288;51.136;16.928;2023-11-21T01:38:59;894.80;;;820.03;;
59474;SDS011;45288;51.136;16.928;2023-11-21T01:41:26;880.22;;;808.30;;
59474;SDS011;45288;51.136;16.928;2023-11-21T01:43:52;893.15;;;819.95;;
59474;SDS011;45288;51.136;16.928;2023-11-21T01:46:19;883.90;;;811.65;;
59474;SDS011;45288;51.136;16.928;2023-11-21T01:48:46;901.85;;;828.03;;
59474;SDS011;45288;51.136;16.928;2023-11-21T01:51:15;892.70;;;818.80;;
59474;SDS011;45288;51.136;16.928;2023-11-21T01:53:41;901.53;;;827.90;;
59474;SDS011;45288;51.136;16.928;2023-11-21T01:56:07;896.53;;;822.00;;
59474;SDS011;45288;51.136;16.928;2023-11-21T01:58:35;898.58;;;823.22;;
59474;SDS011;45288;51.136;16.928;2023-11-21T02:01:02;897.60;;;822.03;;
59474;SDS011;45288;51.136;16.928;2023-11-21T02:03:28;896.15;;;821.33;;
59474;SDS011;45288;51.136;16.928;2023-11-21T02:05:53;901.67;;;827.20;;
59474;SDS011;45288;51.136;16.928;2023-11-21T02:08:19;897.33;;;821.42;;
59474;SDS011;45288;51.136;16.928;2023-11-21T02:10:45;908.10;;;832.47;;
59474;SDS011;45288;51.136;16.928;2023-11-21T02:13:11;908.05;;;832.47;;
59474;SDS011;45288;51.136;16.928;2023-11-21T02:15:37;902.67;;;826.65;;
59474;SDS011;45288;51.136;16.928;2023-11-21T02:18:04;906.90;;;830.83;;
59474;SDS011;45288;51.136;16.928;2023-11-21T02:20:31;917.55;;;840.65;;
59474;SDS011;45288;51.136;16.928;2023-11-21T02:23:00;909.53;;;833.92;;
59474;SDS011;45288;51.136;16.928;2023-11-21T02:25:27;913.20;;;838.33;;
59474;SDS011;45288;51.136;16.928;2023-11-21T02:27:55;925.72;;;849.00;;
59474;SDS011;45288;51.136;16.928;2023-11-21T02:30:21;913.05;;;835.88;;
59474;SDS011;45288;51.136;16.928;2023-11-21T02:32:50;920.90;;;844.63;;
59474;SDS011;45288;51.136;16.928;2023-11-21T02:35:23;911.20;;;835.88;;
59474;SDS011;45288;51.136;16.928;2023-11-21T02:37:49;905.47;;;830.55;;
59474;SDS011;45288;51.136;16.928;2023-11-21T02:40:15;912.10;;;837.40;;
59474;SDS011;45288;51.136;16.928;2023-11-21T02:42:44;911.00;;;834.20;;
59474;SDS011;45288;51.136;16.928;2023-11-21T02:45:10;919.42;;;844.05;;
59474;SDS011;45288;51.136;16.928;2023-11-21T02:47:38;913.60;;;838.25;;
59474;SDS011;45288;51.136;16.928;2023-11-21T02:50:04;918.40;;;841.85;;
59474;SDS011;45288;51.136;16.928;2023-11-21T02:52:33;913.92;;;838.40;;
59474;SDS011;45288;51.136;16.928;2023-11-21T02:55:01;915.08;;;838.53;;
59474;SDS011;45288;51.136;16.928;2023-11-21T02:57:27;916.53;;;840.03;;
59474;SDS011;45288;51.136;16.928;2023-11-21T02:59:53;912.95;;;837.00;;
59474;SDS011;45288;51.136;16.928;2023-11-21T03:02:20;911.53;;;835.60;;
59474;SDS011;45288;51.136;16.928;2023-11-21T03:04:45;907.35;;;830.75;;
59474;SDS011;45288;51.136;16.928;2023-11-21T03:07:14;915.33;;;838.00;;
59474;SDS011;45288;51.136;16.928;2023-11-21T03:09:40;919.72;;;841.47;;
59474;SDS011;45288;51.136;16.928;2023-11-21T03:12:06;917.70;;;840.75;;
59474;SDS011;45288;51.136;16.928;2023-11-21T03:14:32;914.38;;;838.90;;
59474;SDS011;45288;51.136;16.928;2023-11-21T03:16:58;920.47;;;842.88;;
59474;SDS011;45288;51.136;16.928;2023-11-21T03:19:24;923.73;;;846.40;;
59474;SDS011;45288;51.136;16.928;2023-11-21T03:21:50;925.50;;;847.13;;
59474;SDS011;45288;51.136;16.928;2023-11-21T03:24:18;918.38;;;841.97;;
59474;SDS011;45288;51.136;16.928;2023-11-21T03:26:45;919.63;;;840.45;;
59474;SDS011;45288;51.136;16.928;2023-11-21T03:29:17;919.63;;;843.83;;
59474;SDS011;45288;51.136;16.928;2023-11-21T03:31:42;908.33;;;834.07;;
59474;SDS011;45288;51.136;16.928;2023-11-21T03:34:15;910.40;;;835.57;;
59474;SDS011;45288;51.136;16.928;2023-11-21T03:36:49;921.63;;;845.60;;
59474;SDS011;45288;51.136;16.928;2023-11-21T03:39:15;913.17;;;838.20;;
59474;SDS011;45288;51.136;16.928;2023-11-21T03:41:40;912.43;;;837.53;;
59474;SDS011;45288;51.136;16.928;2023-11-21T03:44:06;914.03;;;839.42;;
59474;SDS011;45288;51.136;16.928;2023-11-21T03:46:32;901.90;;;828.47;;
59474;SDS011;45288;51.136;16.928;2023-11-21T03:48:58;910.63;;;835.88;;
59474;SDS011;45288;51.136;16.928;2023-11-21T03:51:23;905.92;;;830.50;;
59474;SDS011;45288;51.136;16.928;2023-11-21T03:53:49;900.78;;;826.42;;
59474;SDS011;45288;51.136;16.928;2023-11-21T03:56:15;897.40;;;823.07;;
59474;SDS011;45288;51.136;16.928;2023-11-21T03:58:41;907.17;;;831.43;;
59474;SDS011;45288;51.136;16.928;2023-11-21T04:01:07;896.65;;;822.80;;
59474;SDS011;45288;51.136;16.928;2023-11-21T04:03:32;897.92;;;824.83;;
59474;SDS011;45288;51.136;16.928;2023-11-21T04:05:58;910.87;;;834.13;;
59474;SDS011;45288;51.136;16.928;2023-11-21T04:08:24;901.85;;;827.53;;
59474;SDS011;45288;51.136;16.928;2023-11-21T04:10:50;902.77;;;826.37;;
59474;SDS011;45288;51.136;16.928;2023-11-21T04:13:16;902.83;;;829.25;;
59474;SDS011;45288;51.136;16.928;2023-11-21T04:15:42;899.58;;;825.05;;
59474;SDS011;45288;51.136;16.928;2023-11-21T04:18:07;896.77;;;822.33;;
59474;SDS011;45288;51.136;16.928;2023-11-21T04:20:33;900.13;;;826.72;;
59474;SDS011;45288;51.136;16.928;2023-11-21T04:22:59;901.42;;;827.67;;
59474;SDS011;45288;51.136;16.928;2023-11-21T04:25:25;900.25;;;827.20;;
59474;SDS011;45288;51.136;16.928;2023-11-21T04:27:51;906.30;;;832.37;;
59474;SDS011;45288;51.136;16.928;2023-11-21T04:30:16;896.45;;;823.45;;
59474;SDS011;45288;51.136;16.928;2023-11-21T04:32:42;902.45;;;828.42;;
59474;SDS011;45288;51.136;16.928;2023-11-21T04:35:08;893.97;;;820.17;;
59474;SDS011;45288;51.136;16.928;2023-11-21T04:37:34;901.67;;;828.35;;
59474;SDS011;45288;51.136;16.928;2023-11-21T04:40:00;901.70;;;828.70;;
59474;SDS011;45288;51.136;16.928;2023-11-21T04:42:26;900.87;;;828.23;;
59474;SDS011;45288;51.136;16.928;2023-11-21T04:44:52;915.80;;;841.53;;
59474;SDS011;45288;51.136;16.928;2023-11-21T04:47:18;910.25;;;836.70;;
59474;SDS011;45288;51.136;16.928;2023-11-21T04:49:45;910.30;;;833.63;;
59474;SDS011;45288;51.136;16.928;2023-11-21T04:52:12;905.95;;;830.28;;
59474;SDS011;45288;51.136;16.928;2023-11-21T04:54:38;909.07;;;834.20;;
59474;SDS011;45288;51.136;16.928;2023-11-21T04:57:05;896.55;;;823.00;;
59474;SDS011;45288;51.136;16.928;2023-11-21T04:59:33;914.47;;;840.07;;
59474;SDS011;45288;51.136;16.928;2023-11-21T05:01:59;912.92;;;838.35;;
59474;SDS011;45288;51.136;16.928;2023-11-21T05:04:28;909.42;;;833.53;;
59474;SDS011;45288;51.136;16.928;2023-11-21T05:06:54;904.00;;;828.45;;
59474;SDS011;45288;51.136;16.928;2023-11-21T05:09:20;911.53;;;836.58;;
59474;SDS011;45288;51.136;16.928;2023-11-21T05:11:47;908.38;;;833.97;;
59474;SDS011;45288;51.136;16.928;2023-11-21T05:14:13;916.33;;;840.97;;
59474;SDS011;45288;51.136;16.928;2023-11-21T05:16:39;919.65;;;842.72;;
59474;SDS011;45288;51.136;16.928;2023-11-21T05:19:05;925.67;;;848.05;;
59474;SDS011;45288;51.136;16.928;2023-11-21T05:21:31;926.58;;;849.28;;
59474;SDS011;45288;51.136;16.928;2023-11-21T05:24:01;925.38;;;847.03;;
59474;SDS011;45288;51.136;16.928;2023-11-21T05:26:27;909.97;;;834.17;;
59474;SDS011;45288;51.136;16.928;2023-11-21T05:28:53;910.55;;;836.30;;
59474;SDS011;45288;51.136;16.928;2023-11-21T05:31:18;923.28;;;846.40;;
59474;SDS011;45288;51.136;16.928;2023-11-21T05:33:44;904.70;;;829.38;;
59474;SDS011;45288;51.136;16.928;2023-11-21T05:36:10;914.40;;;838.57;;
59474;SDS011;45288;51.136;16.928;2023-11-21T05:38:36;909.08;;;833.92;;
59474;SDS011;45288;51.136;16.928;2023-11-21T05:41:02;911.00;;;836.13;;
59474;SDS011;45288;51.136;16.928;2023-11-21T05:43:30;910.65;;;834.80;;
59474;SDS011;45288;51.136;16.928;2023-11-21T05:45:57;911.90;;;837.53;;
59474;SDS011;45288;51.136;16.928;2023-11-21T05:48:23;903.03;;;829.93;;
59474;SDS011;45288;51.136;16.928;2023-11-21T05:50:49;908.03;;;833.60;;
59474;SDS011;45288;51.136;16.928;2023-11-21T05:53:15;904.40;;;829.72;;
59474;SDS011;45288;51.136;16.928;2023-11-21T05:55:42;906.65;;;829.67;;
59474;SDS011;45288;51.136;16.928;2023-11-21T05:58:08;899.00;;;823.72;;
59474;SDS011;45288;51.136;16.928;2023-11-21T06:00:34;899.10;;;823.00;;
59474;SDS011;45288;51.136;16.928;2023-11-21T06:06:28;909.58;;;835.53;;
59474;SDS011;45288;51.136;16.928;2023-11-21T06:08:54;904.20;;;829.17;;
59474;SDS011;45288;51.136;16.928;2023-11-21T06:11:20;893.00;;;819.30;;
59474;SDS011;45288;51.136;16.928;2023-11-21T06:13:46;903.97;;;828.47;;
59474;SDS011;45288;51.136;16.928;2023-11-21T06:16:13;922.73;;;843.70;;
59474;SDS011;45288;51.136;16.928;2023-11-21T06:18:44;911.55;;;834.00;;
59474;SDS011;45288;51.136;16.928;2023-11-21T06:21:11;926.15;;;846.97;;
59474;SDS011;45288;51.136;16.928;2023-11-21T06:23:37;909.83;;;835.57;;
59474;SDS011;45288;51.136;16.928;2023-11-21T06:26:03;905.60;;;831.20;;
59474;SDS011;45288;51.136;16.928;2023-11-21T06:28:30;909.78;;;834.83;;
59474;SDS011;45288;51.136;16.928;2023-11-21T06:30:56;921.73;;;845.07;;
59474;SDS011;45288;51.136;16.928;2023-11-21T06:33:23;917.67;;;840.75;;
59474;SDS011;45288;51.136;16.928;2023-11-21T06:35:50;915.60;;;838.37;;
59474;SDS011;45288;51.136;16.928;2023-11-21T06:38:17;908.70;;;834.08;;
59474;SDS011;45288;51.136;16.928;2023-11-21T06:40:43;915.50;;;840.35;;
59474;SDS011;45288;51.136;16.928;2023-11-21T06:43:09;925.53;;;849.42;;
59474;SDS011;45288;51.136;16.928;2023-11-21T06:45:35;916.72;;;842.25;;
59474;SDS011;45288;51.136;16.928;2023-11-21T06:48:01;909.60;;;835.17;;
59474;SDS011;45288;51.136;16.928;2023-11-21T06:50:27;915.88;;;839.22;;
59474;SDS011;45288;51.136;16.928;2023-11-21T06:52:53;913.83;;;838.22;;
59474;SDS011;45288;51.136;16.928;2023-11-21T06:55:18;912.47;;;836.00;;
59474;SDS011;45288;51.136;16.928;2023-11-21T06:57:45;915.87;;;838.50;;
59474;SDS011;45288;51.136;16.928;2023-11-21T07:00:12;923.10;;;845.75;;
59474;SDS011;45288;51.136;16.928;2023-11-21T07:02:42;924.53;;;847.72;;
59474;SDS011;45288;51.136;16.928;2023-11-21T07:05:07;917.95;;;841.90;;
59474;SDS011;45288;51.136;16.928;2023-11-21T07:07:34;925.10;;;847.03;;
59474;SDS011;45288;51.136;16.928;2023-11-21T07:10:01;924.35;;;846.55;;
59474;SDS011;45288;51.136;16.928;2023-11-21T07:12:29;921.53;;;845.95;;
59474;SDS011;45288;51.136;16.928;2023-11-21T07:14:56;924.88;;;849.50;;
59474;SDS011;45288;51.136;16.928;2023-11-21T07:17:23;932.03;;;855.97;;
59474;SDS011;45288;51.136;16.928;2023-11-21T07:19:49;927.78;;;851.85;;
59474;SDS011;45288;51.136;16.928;2023-11-21T07:22:15;933.58;;;856.78;;
59474;SDS011;45288;51.136;16.928;2023-11-21T07:24:50;937.40;;;859.47;;
59474;SDS011;45288;51.136;16.928;2023-11-21T07:27:19;934.50;;;858.22;;
59474;SDS011;45288;51.136;16.928;2023-11-21T07:29:44;946.93;;;870.03;;
59474;SDS011;45288;51.136;16.928;2023-11-21T07:32:12;941.35;;;865.13;;
59474;SDS011;45288;51.136;16.928;2023-11-21T07:34:39;939.17;;;862.67;;
59474;SDS011;45288;51.136;16.928;2023-11-21T07:37:06;941.20;;;865.83;;
59474;SDS011;45288;51.136;16.928;2023-11-21T07:39:32;937.70;;;862.55;;
59474;SDS011;45288;51.136;16.928;2023-11-21T07:41:58;934.28;;;859.45;;
59474;SDS011;45288;51.136;16.928;2023-11-21T07:44:24;941.33;;;866.87;;
59474;SDS011;45288;51.136;16.928;2023-11-21T07:46:50;946.80;;;869.08;;
59474;SDS011;45288;51.136;16.928;2023-11-21T07:49:16;946.35;;;870.92;;
59474;SDS011;45288;51.136;16.928;2023-11-21T07:51:43;946.38;;;870.38;;
59474;SDS011;45288;51.136;16.928;2023-11-21T07:54:09;941.55;;;866.03;;
59474;SDS011;45288;51.136;16.928;2023-11-21T07:56:36;938.92;;;863.72;;
59474;SDS011;45288;51.136;16.928;2023-11-21T07:59:02;935.60;;;859.73;;
59474;SDS011;45288;51.136;16.928;2023-11-21T08:01:29;925.00;;;849.78;;
59474;SDS011;45288;51.136;16.928;2023-11-21T08:03:56;931.40;;;854.00;;
59474;SDS011;45288;51.136;16.928;2023-11-21T08:06:25;924.55;;;848.92;;
59474;SDS011;45288;51.136;16.928;2023-11-21T08:08:51;929.00;;;854.95;;
59474;SDS011;45288;51.136;16.928;2023-11-21T08:11:18;929.95;;;855.55;;
59474;SDS011;45288;51.136;16.928;2023-11-21T08:13:45;934.13;;;859.10;;
59474;SDS011;45288;51.136;16.928;2023-11-21T08:16:12;926.35;;;851.67;;
59474;SDS011;45288;51.136;16.928;2023-11-21T08:18:38;942.87;;;867.67;;
59474;SDS011;45288;51.136;16.928;2023-11-21T08:21:06;941.90;;;866.72;;
59474;SDS011;45288;51.136;16.928;2023-11-21T08:23:33;941.38;;;865.05;;
59474;SDS011;45288;51.136;16.928;2023-11-21T08:26:01;944.65;;;869.03;;
59474;SDS011;45288;51.136;16.928;2023-11-21T08:28:28;941.47;;;866.80;;
59474;SDS011;45288;51.136;16.928;2023-11-21T08:30:55;962.15;;;884.70;;
59474;SDS011;45288;51.136;16.928;2023-11-21T08:33:20;950.33;;;873.75;;
59474;SDS011;45288;51.136;16.928;2023-11-21T08:35:48;966.35;;;888.95;;
59474;SDS011;45288;51.136;16.928;2023-11-21T08:38:14;947.40;;;871.43;;
59474;SDS011;45288;51.136;16.928;2023-11-21T08:40:41;954.15;;;876.65;;
59474;SDS011;45288;51.136;16.928;2023-11-21T08:43:07;955.47;;;878.30;;
59474;SDS011;45288;51.136;16.928;2023-11-21T08:45:34;948.53;;;871.78;;
59474;SDS011;45288;51.136;16.928;2023-11-21T08:48:00;956.73;;;882.07;;
59474;SDS011;45288;51.136;16.928;2023-11-21T08:50:27;947.47;;;874.30;;
59474;SDS011;45288;51.136;16.928;2023-11-21T08:52:54;940.85;;;867.25;;
59474;SDS011;45288;51.136;16.928;2023-11-21T08:55:21;941.80;;;867.28;;
59474;SDS011;45288;51.136;16.928;2023-11-21T08:57:47;941.97;;;867.80;;
59474;SDS011;45288;51.136;16.928;2023-11-21T09:00:15;947.67;;;872.25;;
59474;SDS011;45288;51.136;16.928;2023-11-21T09:02:42;954.45;;;878.75;;
59474;SDS011;45288;51.136;16.928;2023-11-21T09:05:11;946.20;;;870.42;;
59474;SDS011;45288;51.136;16.928;2023-11-21T09:07:39;940.80;;;866.53;;
59474;SDS011;45288;51.136;16.928;2023-11-21T09:10:07;948.63;;;874.00;;
59474;SDS011;45288;51.136;16.928;2023-11-21T09:12:36;942.05;;;864.47;;
59474;SDS011;45288;51.136;16.928;2023-11-21T09:15:05;941.10;;;865.37;;
59474;SDS011;45288;51.136;16.928;2023-11-21T09:17:32;950.20;;;874.00;;
59474;SDS011;45288;51.136;16.928;2023-11-21T09:19:59;943.28;;;868.20;;
59474;SDS011;45288;51.136;16.928;2023-11-21T09:22:25;951.50;;;873.33;;
59474;SDS011;45288;51.136;16.928;2023-11-21T09:24:52;949.30;;;872.10;;
59474;SDS011;45288;51.136;16.928;2023-11-21T09:27:18;938.40;;;862.00;;
59474;SDS011;45288;51.136;16.928;2023-11-21T09:29:45;925.47;;;851.60;;
59474;SDS011;45288;51.136;16.928;2023-11-21T09:32:14;938.88;;;863.83;;
59474;SDS011;45288;51.136;16.928;2023-11-21T09:34:45;933.07;;;856.47;;
59474;SDS011;45288;51.136;16.928;2023-11-21T09:37:11;931.87;;;855.33;;
59474;SDS011;45288;51.136;16.928;2023-11-21T09:39:40;938.17;;;862.70;;
59474;SDS011;45288;51.136;16.928;2023-11-21T09:42:17;942.83;;;865.97;;
59474;SDS011;45288;51.136;16.928;2023-11-21T09:47:44;934.03;;;859.88;;
59474;SDS011;45288;51.136;16.928;2023-11-21T09:50:11;940.90;;;864.83;;
59474;SDS011;45288;51.136;16.928;2023-11-21T09:53:26;943.22;;;867.75;;
59474;SDS011;45288;51.136;16.928;2023-11-21T09:55:36;943.67;;;869.00;;
59474;SDS011;45288;51.136;16.928;2023-11-21T09:58:04;951.63;;;876.97;;
59474;SDS011;45288;51.136;16.928;2023-11-21T10:00:35;942.67;;;868.58;;
59474;SDS011;45288;51.136;16.928;2023-11-21T10:03:01;933.88;;;859.83;;
59474;SDS011;45288;51.136;16.928;2023-11-21T10:05:30;939.28;;;863.53;;
59474;SDS011;45288;51.136;16.928;2023-11-21T10:07:59;946.03;;;870.50;;
59474;SDS011;45288;51.136;16.928;2023-11-21T10:10:26;936.35;;;861.85;;
59474;SDS011;45288;51.136;16.928;2023-11-21T10:12:57;944.78;;;870.38;;
59474;SDS011;45288;51.136;16.928;2023-11-21T10:15:28;937.85;;;862.65;;
59474;SDS011;45288;51.136;16.928;2023-11-21T10:17:55;951.00;;;876.23;;
59474;SDS011;45288;51.136;16.928;2023-11-21T10:20:22;939.10;;;865.78;;
59474;SDS011;45288;51.136;16.928;2023-11-21T10:22:50;951.35;;;878.08;;
59474;SDS011;45288;51.136;16.928;2023-11-21T10:25:16;951.20;;;876.65;;
59474;SDS011;45288;51.136;16.928;2023-11-21T10:27:45;954.60;;;877.22;;
59474;SDS011;45288;51.136;16.928;2023-11-21T10:30:13;965.22;;;888.55;;
59474;SDS011;45288;51.136;16.928;2023-11-21T10:32:41;968.83;;;891.78;;
59474;SDS011;45288;51.136;16.928;2023-11-21T10:35:10;967.07;;;891.67;;
59474;SDS011;45288;51.136;16.928;2023-11-21T10:37:39;966.65;;;891.72;;
59474;SDS011;45288;51.136;16.928;2023-11-21T10:40:07;953.88;;;879.20;;
59474;SDS011;45288;51.136;16.928;2023-11-21T10:42:38;953.80;;;879.28;;
59474;SDS011;45288;51.136;16.928;2023-11-21T10:45:06;955.40;;;882.22;;
59474;SDS011;45288;51.136;16.928;2023-11-21T10:47:42;959.70;;;885.03;;
59474;SDS011;45288;51.136;16.928;2023-11-21T10:50:09;948.83;;;874.55;;
59474;SDS011;45288;51.136;16.928;2023-11-21T10:52:37;940.58;;;866.88;;
59474;SDS011;45288;51.136;16.928;2023-11-21T10:55:17;951.65;;;877.75;;
59474;SDS011;45288;51.136;16.928;2023-11-21T10:57:52;963.05;;;885.00;;
59474;SDS011;45288;51.136;16.928;2023-11-21T11:00:19;935.75;;;859.67;;
59474;SDS011;45288;51.136;16.928;2023-11-21T11:02:52;931.72;;;857.92;;
59474;SDS011;45288;51.136;16.928;2023-11-21T11:05:23;934.58;;;859.72;;
59474;SDS011;45288;51.136;16.928;2023-11-21T11:07:51;937.35;;;862.35;;
59474;SDS011;45288;51.136;16.928;2023-11-21T11:10:25;920.03;;;846.60;;
59474;SDS011;45288;51.136;16.928;2023-11-21T11:12:53;935.03;;;858.90;;
59474;SDS011;45288;51.136;16.928;2023-11-21T11:15:21;933.60;;;856.53;;
59474;SDS011;45288;51.136;16.928;2023-11-21T11:17:48;905.70;;;831.38;;
59474;SDS011;45288;51.136;16.928;2023-11-21T11:20:16;925.30;;;847.50;;
59474;SDS011;45288;51.136;16.928;2023-11-21T11:28:04;904.35;;;826.40;;
59474;SDS011;45288;51.136;16.928;2023-11-21T11:33:23;916.97;;;836.50;;
59474;SDS011;45288;51.136;16.928;2023-11-21T11:36:02;909.73;;;830.73;;
59474;SDS011;45288;51.136;16.928;2023-11-21T11:38:44;907.08;;;828.00;;
59474;SDS011;45288;51.136;16.928;2023-11-21T11:41:12;898.67;;;818.45;;
59474;SDS011;45288;51.136;16.928;2023-11-21T11:43:41;893.70;;;814.13;;
59474;SDS011;45288;51.136;16.928;2023-11-21T11:46:11;891.53;;;810.88;;
59474;SDS011;45288;51.136;16.928;2023-11-21T11:48:40;877.58;;;797.72;;
59474;SDS011;45288;51.136;16.928;2023-11-21T11:51:10;876.55;;;797.15;;
59474;SDS011;45288;51.136;16.928;2023-11-21T11:53:41;869.13;;;789.95;;
59474;SDS011;45288;51.136;16.928;2023-11-21T11:56:21;877.15;;;797.22;;
59474;SDS011;45288;51.136;16.928;2023-11-21T11:58:59;860.13;;;780.47;;
59474;SDS011;45288;51.136;16.928;2023-11-21T12:01:28;858.75;;;780.45;;
59474;SDS011;45288;51.136;16.928;2023-11-21T12:06:42;841.38;;;764.40;;
59474;SDS011;45288;51.136;16.928;2023-11-21T12:09:17;836.35;;;759.47;;
59474;SDS011;45288;51.136;16.928;2023-11-21T12:11:46;834.42;;;754.70;;
59474;SDS011;45288;51.136;16.928;2023-11-21T12:14:12;829.58;;;751.70;;
59474;SDS011;45288;51.136;16.928;2023-11-21T12:16:40;816.90;;;739.55;;
59474;SDS011;45288;51.136;16.928;2023-11-21T12:19:06;817.08;;;737.25;;
59474;SDS011;45288;51.136;16.928;2023-11-21T12:21:34;804.85;;;725.92;;
59474;SDS011;45288;51.136;16.928;2023-11-21T12:24:02;800.00;;;724.40;;
59474;SDS011;45288;51.136;16.928;2023-11-21T12:26:28;803.45;;;727.72;;
59474;SDS011;45288;51.136;16.928;2023-11-21T12:28:54;803.37;;;724.70;;
59474;SDS011;45288;51.136;16.928;2023-11-21T12:31:21;799.20;;;724.33;;
59474;SDS011;45288;51.136;16.928;2023-11-21T12:33:47;790.33;;;720.73;;
59474;SDS011;45288;51.136;16.928;2023-11-21T12:36:16;785.70;;;709.40;;
59474;SDS011;45288;51.136;16.928;2023-11-21T12:38:42;777.40;;;703.73;;
59474;SDS011;45288;51.136;16.928;2023-11-21T12:41:10;775.80;;;699.70;;
59474;SDS011;45288;51.136;16.928;2023-11-21T12:43:36;765.63;;;693.10;;
59474;SDS011;45288;51.136;16.928;2023-11-21T12:46:05;773.35;;;697.15;;
59474;SDS011;45288;51.136;16.928;2023-11-21T12:48:42;765.40;;;689.45;;
59474;SDS011;45288;51.136;16.928;2023-11-21T12:51:09;761.38;;;686.20;;
59474;SDS011;45288;51.136;16.928;2023-11-21T12:53:45;754.13;;;677.67;;
59474;SDS011;45288;51.136;16.928;2023-11-21T12:56:12;759.77;;;682.40;;
59474;SDS011;45288;51.136;16.928;2023-11-21T12:58:40;748.23;;;671.07;;
59474;SDS011;45288;51.136;16.928;2023-11-21T13:01:13;746.97;;;669.85;;
59474;SDS011;45288;51.136;16.928;2023-11-21T13:03:48;751.63;;;673.60;;
59474;SDS011;45288;51.136;16.928;2023-11-21T13:06:18;748.33;;;671.28;;
59474;SDS011;45288;51.136;16.928;2023-11-21T13:08:45;734.87;;;657.90;;
59474;SDS011;45288;51.136;16.928;2023-11-21T13:11:11;745.78;;;668.45;;
59474;SDS011;45288;51.136;16.928;2023-11-21T13:13:40;726.47;;;649.97;;
59474;SDS011;45288;51.136;16.928;2023-11-21T13:16:09;726.50;;;649.55;;
59474;SDS011;45288;51.136;16.928;2023-11-21T13:18:35;724.22;;;647.67;;
59474;SDS011;45288;51.136;16.928;2023-11-21T13:21:03;716.67;;;640.15;;
59474;SDS011;45288;51.136;16.928;2023-11-21T13:23:45;725.83;;;649.03;;
59474;SDS011;45288;51.136;16.928;2023-11-21T13:26:14;728.33;;;650.83;;
59474;SDS011;45288;51.136;16.928;2023-11-21T13:28:40;711.40;;;634.65;;
59474;SDS011;45288;51.136;16.928;2023-11-21T13:31:12;715.38;;;638.97;;
59474;SDS011;45288;51.136;16.928;2023-11-21T13:33:48;718.42;;;641.67;;
59474;SDS011;45288;51.136;16.928;2023-11-21T13:36:23;699.67;;;623.97;;
59474;SDS011;45288;51.136;16.928;2023-11-21T13:38:50;710.87;;;633.90;;
59474;SDS011;45288;51.136;16.928;2023-11-21T13:41:17;707.78;;;631.08;;
59474;SDS011;45288;51.136;16.928;2023-11-21T13:43:44;702.10;;;625.60;;
59474;SDS011;45288;51.136;16.928;2023-11-21T13:46:16;695.40;;;618.97;;
59474;SDS011;45288;51.136;16.928;2023-11-21T13:48:48;694.45;;;618.50;;
59474;SDS011;45288;51.136;16.928;2023-11-21T13:51:22;690.33;;;613.80;;
59474;SDS011;45288;51.136;16.928;2023-11-21T13:53:58;683.85;;;606.97;;
59474;SDS011;45288;51.136;16.928;2023-11-21T13:56:26;680.88;;;600.67;;
59474;SDS011;45288;51.136;16.928;2023-11-21T13:58:54;683.03;;;603.78;;
59474;SDS011;45288;51.136;16.928;2023-11-21T14:01:22;684.65;;;598.72;;
59474;SDS011;45288;51.136;16.928;2023-11-21T14:03:57;671.97;;;578.47;;